SBRF/REC METAR and TAF weather

Enter ICAO airport designator
Station Type Date Time Source
SBRF METAR 2019/04/25 10:00 UTC NOAA

SBRF 251000Z 16017KT 9999 SCT018 SCT027 26/23 Q1013


Station Type Date Time Source
SBRF Decoded METAR 2019/04/25 10:00 UTC NOAA

Recife Aeroporto , Brazil (SBRF) 08-04S 034-51W
Apr 25, 2019 - 06:00 AM EDT / 2019.04.25 1000 UTC
Wind: from the SSE (160 degrees) at 20 MPH (17 KT):0
Visibility: greater than 7 mile(s):0
Sky conditions: partly cloudy
Temperature: 78 F (26 C)
Dew Point: 73 F (23 C)
Relative Humidity: 83%
Pressure (altimeter): 29.91 in. Hg (1013 hPa)
ob: SBRF 251000Z 16017KT 9999 SCT018 SCT027 26/23 Q1013
cycle: 10

Station Type Date Time Source
SBRF TAF 2019/04/25 06:15 UTC NOAA

TAF SBRF 250400Z 2506/2606 16008KT 9999 SCT013 TN26/2509Z TX29/2517Z
TEMPO 2512/2420 19008KT FEW013 FEW025TCU
BECMG 2521/2523 SCT022
RMK PAY

Example: see airport list